Orbital elements of SL-14 DEB
| Launched | 25 October 1978 |
| Flight ended | – |
| Launch site | Plesetsk Missile and Space Complex, Russia |
| Owner | Commonwealth of Independent States (former USSR) |
| NORAD ID | 19143 |
| Date fetched |
Epoch osculation |
Inc. [°] |
Ecc. | RA asc node [hr] |
Arg Peri. [°] |
Mean anom [°] |
Mean motion [rev/day] |
Abs. mag |
| Date fetched |
Epoch osculation |
Inc. [°] |
Ecc. | RA asc node [hr] |
Arg Peri. [°] |
Mean anom [°] |
Mean motion [rev/day] |
Abs. mag |
| 2026 May 06 17:57 | 2026 May 04 22:08:42 | 81.6934 | 0.03167 | 6.9213 | 150.8397 | 240.7757 | 12.70406 | – |
| 2026 May 05 17:57 | 2026 May 04 22:08:42 | 81.6934 | 0.03167 | 6.9213 | 150.8397 | 240.7757 | 12.70406 | – |
| 2026 May 04 17:57 | 2026 Apr 29 10:29:09 | 81.6913 | 0.03164 | 7.1867 | 163.2047 | 240.7757 | 12.70406 | – |
| 2026 May 03 17:57 | 2026 Apr 29 10:29:09 | 81.6913 | 0.03164 | 7.1867 | 163.2047 | 240.7757 | 12.70406 | – |
| 2026 May 02 17:57 | 2026 Apr 29 10:29:09 | 81.6913 | 0.03164 | 7.1867 | 163.2047 | 240.7757 | 12.70406 | – |
| 2026 May 01 17:56 | 2026 Apr 29 10:29:09 | 81.6913 | 0.03164 | 7.1867 | 163.2047 | 240.7757 | 12.70406 | – |
| 2026 Apr 30 17:56 | 2026 Apr 29 10:29:09 | 81.6913 | 0.03164 | 7.1867 | 163.2047 | 240.7757 | 12.70406 | – |
| 2026 Apr 29 17:57 | 2026 Apr 24 11:25:24 | 81.6935 | 0.03165 | 7.4268 | 174.2335 | 240.7757 | 12.70406 | – |
| 2026 Apr 28 17:56 | 2026 Apr 24 11:25:24 | 81.6935 | 0.03165 | 7.4268 | 174.2335 | 240.7757 | 12.70406 | – |
| 2026 Apr 27 17:58 | 2026 Apr 24 11:25:24 | 81.6935 | 0.03165 | 7.4268 | 174.2335 | 240.7757 | 12.70406 | – |
| 2026 Apr 26 17:58 | 2026 Apr 24 11:25:24 | 81.6935 | 0.03165 | 7.4268 | 174.2335 | 240.7757 | 12.70406 | – |
| 2026 Apr 25 17:58 | 2026 Apr 24 11:25:24 | 81.6935 | 0.03165 | 7.4268 | 174.2335 | 240.7757 | 12.70406 | – |
| 2026 Apr 24 17:59 | 2026 Apr 24 11:25:24 | 81.6935 | 0.03165 | 7.4268 | 174.2335 | 240.7757 | 12.70406 | – |
| 2026 Apr 23 17:57 | 2026 Apr 19 00:19:46 | 81.6926 | 0.03160 | 7.6910 | 186.6126 | 240.7757 | 12.70406 | – |
| 2026 Apr 22 17:57 | 2026 Apr 19 00:19:46 | 81.6926 | 0.03160 | 7.6910 | 186.6126 | 240.7757 | 12.70406 | – |
| 2026 Apr 21 17:57 | 2026 Apr 19 00:19:46 | 81.6926 | 0.03160 | 7.6910 | 186.6126 | 240.7757 | 12.70406 | – |
| 2026 Apr 20 17:57 | 2026 Apr 19 00:19:46 | 81.6926 | 0.03160 | 7.6910 | 186.6126 | 240.7757 | 12.70406 | – |
| 2026 Apr 19 17:58 | 2026 Apr 19 00:19:46 | 81.6926 | 0.03160 | 7.6910 | 186.6126 | 240.7757 | 12.70406 | – |
| 2026 Apr 18 17:56 | 2026 Apr 13 00:40:35 | 81.6941 | 0.03154 | 7.9806 | 200.0349 | 240.7757 | 12.70406 | – |
| 2026 Apr 16 17:57 | 2026 Apr 13 00:40:35 | 81.6941 | 0.03154 | 7.9806 | 200.0349 | 240.7757 | 12.70406 | – |
| 2026 Apr 14 17:57 | 2026 Apr 13 00:40:35 | 81.6941 | 0.03154 | 7.9806 | 200.0349 | 240.7757 | 12.70406 | – |
| 2026 Apr 13 17:57 | 2026 Apr 13 00:40:35 | 81.6941 | 0.03154 | 7.9806 | 200.0349 | 240.7757 | 12.70406 | – |
| 2026 Apr 12 17:57 | 2026 Apr 08 07:12:09 | 81.6958 | 0.03149 | 8.2093 | 210.6066 | 240.7757 | 12.70406 | – |
| 2026 Apr 11 17:57 | 2026 Apr 08 07:12:09 | 81.6958 | 0.03149 | 8.2093 | 210.6066 | 240.7757 | 12.70406 | – |
| 2026 Apr 10 17:58 | 2026 Apr 08 07:12:09 | 81.6958 | 0.03149 | 8.2093 | 210.6066 | 240.7757 | 12.70406 | – |
| 2026 Apr 09 18:01 | 2026 Apr 08 07:12:09 | 81.6958 | 0.03149 | 8.2093 | 210.6066 | 240.7757 | 12.70406 | – |